Time;durP1;ratioP1;P1;durP2;ratioP2;P2;SDS_P1;SDS_P2;PMS_P1;PMS_P2;Temp;Humidity;BMP_temperature;BMP_pressure;BME280_temperature;BME280_humidity;BME280_pressure;Samples;Min_cycle;Max_cycle;Signal;HPM_P1;HPM_P2
2024/02/22 00:00:47;;;;;;;;;5.00;4.00;;;;;10.70;100.00;98408.53;5981676;29;100367;-56
2024/02/22 00:03:50;;;;;;;;;5.60;5.20;;;;;10.68;100.00;98404.44;5999304;29;96408;-56
2024/02/22 00:06:54;;;;;;;;;5.40;5.00;;;;;10.68;100.00;98397.19;6003214;29;96417;-56
2024/02/22 00:09:59;;;;;;;;;5.60;5.00;;;;;10.68;100.00;98393.66;6005377;29;96914;-56
2024/02/22 00:13:02;;;;;;;;;6.00;5.40;;;;;10.65;100.00;98384.16;6014033;29;96404;-56
2024/02/22 00:16:08;;;;;;;;;5.00;4.00;;;;;10.66;100.00;98376.88;6012086;29;96611;-56
2024/02/22 00:19:11;;;;;;;;;5.00;5.00;;;;;10.67;100.00;98370.44;5999559;29;96424;-56
2024/02/22 00:22:15;;;;;;;;;6.00;5.00;;;;;10.64;100.00;98365.53;5998137;29;96500;-56
2024/02/22 00:25:21;;;;;;;;;6.40;6.00;;;;;10.65;100.00;98361.78;6013470;29;96893;-54
2024/02/22 00:28:24;;;;;;;;;6.25;5.75;;;;;10.43;100.00;98339.97;6015201;29;96423;-54
2024/02/22 00:31:27;;;;;;;;;4.20;4.00;;;;;10.65;100.00;98357.19;6018348;29;96384;-54
2024/02/22 00:34:31;;;;;;;;;4.00;4.00;;;;;10.68;100.00;98356.75;6002688;29;96337;-54
2024/02/22 00:37:35;;;;;;;;;6.00;5.40;;;;;10.65;100.00;98365.28;6007359;29;96299;-54
2024/02/22 00:40:40;;;;;;;;;5.00;5.00;;;;;10.65;100.00;98359.09;6023347;29;97521;-55
2024/02/22 00:43:43;;;;;;;;;5.00;4.40;;;;;10.63;100.00;98358.50;6022764;29;96775;-54
2024/02/22 00:46:47;;;;;;;;;5.00;4.40;;;;;10.61;100.00;98363.28;6021727;29;96516;-54
2024/02/22 00:49:52;;;;;;;;;8.40;8.00;;;;;10.55;100.00;98354.28;6009545;29;96294;-55
2024/02/22 00:52:55;;;;;;;;;5.00;4.00;;;;;10.53;100.00;98359.09;5999426;29;96473;-54
2024/02/22 00:56:00;;;;;;;;;6.20;5.80;;;;;10.53;100.00;98347.47;6017085;29;96450;-54
2024/02/22 00:59:03;;;;;;;;;5.60;5.40;;;;;10.53;100.00;98347.47;6007412;29;96345;-54
2024/02/22 01:02:08;;;;;;;;;6.40;6.00;;;;;10.50;100.00;98343.41;6001108;29;96338;-54
2024/02/22 01:05:11;;;;;;;;;6.00;5.00;;;;;10.49;100.00;98343.63;6020403;29;96295;-54
2024/02/22 01:08:14;;;;;;;;;7.75;6.75;;;;;10.45;100.00;98332.50;5993223;29;96959;-54
2024/02/22 01:11:19;;;;;;;;;4.00;4.00;;;;;10.39;100.00;98326.16;6007459;29;96583;-54
2024/02/22 01:14:22;;;;;;;;;5.20;5.00;;;;;10.34;100.00;98314.44;5975288;29;96304;-55
2024/02/22 01:17:25;;;;;;;;;5.20;5.20;;;;;10.27;100.00;98302.94;6016676;29;97019;-54
2024/02/22 01:20:29;;;;;;;;;5.75;5.00;;;;;10.19;100.00;98301.44;5989293;29;98545;-54
2024/02/22 01:23:32;;;;;;;;;5.50;5.00;;;;;10.06;100.00;98293.56;6001001;29;96358;-54
2024/02/22 01:26:36;;;;;;;;;6.40;5.00;;;;;9.94;100.00;98284.63;6000713;29;96327;-54
2024/02/22 01:29:41;;;;;;;;;8.00;7.00;;;;;9.85;100.00;98288.72;5986180;29;98820;-54
2024/02/22 01:32:45;;;;;;;;;6.00;6.00;;;;;9.76;100.00;98276.66;6013801;29;96869;-54
2024/02/22 01:35:49;;;;;;;;;5.60;5.00;;;;;9.67;100.00;98276.16;5999937;29;96368;-56
2024/02/22 01:38:52;;;;;;;;;5.00;4.00;;;;;9.58;100.00;98272.97;6007708;29;96556;-56
2024/02/22 01:41:57;;;;;;;;;7.00;7.00;;;;;9.55;100.00;98267.22;6001531;29;98187;-57
2024/02/22 01:45:02;;;;;;;;;5.60;5.60;;;;;9.54;100.00;98261.03;6005755;29;96365;-57
2024/02/22 01:48:06;;;;;;;;;6.00;6.00;;;;;9.51;100.00;98250.72;6016496;29;96791;-57
2024/02/22 01:51:10;;;;;;;;;4.75;4.75;;;;;9.48;100.00;98242.31;5980828;29;96661;-56
2024/02/22 01:54:13;;;;;;;;;5.00;4.50;;;;;9.53;100.00;98251.31;5996742;29;96425;-57
2024/02/22 01:57:18;;;;;;;;;5.33;5.33;;;;;9.65;100.00;98231.69;6002072;29;96386;-57
2024/02/22 02:00:23;;;;;;;;;7.00;7.00;;;;;9.71;100.00;98220.81;6006016;29;96242;-56
2024/02/22 02:03:27;;;;;;;;;6.00;5.00;;;;;9.81;100.00;98229.13;6054601;23;96258;-57
2024/02/22 02:06:30;;;;;;;;;6.00;5.00;;;;;9.88;100.00;98220.94;6053027;29;97041;-57
2024/02/22 02:09:35;;;;;;;;;6.40;5.00;;;;;9.93;100.00;98216.50;6054451;29;97655;-58
2024/02/22 02:12:40;;;;;;;;;7.80;5.40;;;;;9.92;100.00;98206.78;6053487;29;96251;-58
2024/02/22 02:15:43;;;;;;;;;5.00;5.00;;;;;10.05;100.00;98204.91;6038133;29;97165;-58
2024/02/22 02:18:46;;;;;;;;;2.80;2.20;;;;;10.13;100.00;98201.84;6053566;29;96394;-59
2024/02/22 02:22:00;;;;;;;;;5.00;4.40;;;;;10.15;100.00;98189.81;6065295;28;96203;-59
2024/02/22 02:25:06;;;;;;;;;5.00;5.00;;;;;10.19;100.00;98193.69;6056452;28;96621;-57
2024/02/22 02:28:09;;;;;;;;;4.00;3.25;;;;;10.21;100.00;98188.91;6054817;29;96319;-57
2024/02/22 02:31:12;;;;;;;;;3.20;3.20;;;;;10.21;100.00;98183.50;6053764;29;96324;-57
2024/02/22 02:34:16;;;;;;;;;3.00;2.00;;;;;10.20;100.00;98179.16;6037497;29;98447;-57
2024/02/22 02:37:19;;;;;;;;;5.40;4.80;;;;;10.33;100.00;98178.91;6053662;29;96345;-57
2024/02/22 02:40:23;;;;;;;;;4.60;3.00;;;;;10.40;100.00;98171.53;6054364;29;96356;-58
2024/02/22 02:43:26;;;;;;;;;5.00;4.00;;;;;10.47;100.00;98157.91;6053166;29;96611;-57
2024/02/22 02:46:29;;;;;;;;;2.60;2.60;;;;;10.53;100.00;98165.03;6052649;28;96672;-57
2024/02/22 02:49:33;;;;;;;;;2.00;1.00;;;;;10.60;100.00;98171.13;6038869;29;96392;-57
2024/02/22 02:52:36;;;;;;;;;6.00;5.00;;;;;10.62;100.00;98154.69;6054040;29;96626;-57
2024/02/22 02:55:41;;;;;;;;;4.40;3.80;;;;;10.59;100.00;98152.47;6053873;29;96606;-59
2024/02/22 02:58:44;;;;;;;;;5.75;3.75;;;;;10.71;100.00;98139.78;6035761;29;96681;-58
2024/02/22 03:01:47;;;;;;;;;2.20;2.20;;;;;10.66;100.00;98137.78;6052835;29;96631;-57
2024/02/22 03:04:50;;;;;;;;;5.00;4.00;;;;;10.74;100.00;98134.75;6048609;29;96437;-56
2024/02/22 03:07:54;;;;;;;;;3.00;3.00;;;;;10.79;100.00;98131.31;6051967;29;96387;-59
2024/02/22 03:10:59;;;;;;;;;3.75;3.00;;;;;10.80;100.00;98138.31;6048811;29;96296;-58
2024/02/22 03:14:02;;;;;;;;;3.00;3.00;;;;;10.91;100.00;98139.31;6040396;29;96871;-57
2024/02/22 03:17:06;;;;;;;;;3.20;3.00;;;;;10.85;100.00;98133.84;6022689;29;97050;-57
2024/02/22 03:20:11;;;;;;;;;3.00;3.00;;;;;10.95;100.00;98116.22;6022669;29;96420;-57
2024/02/22 03:23:14;;;;;;;;;3.40;3.00;;;;;11.02;100.00;98114.19;6006507;29;96321;-57
2024/02/22 03:26:19;;;;;;;;;3.00;3.00;;;;;10.69;100.00;98058.34;6022487;29;96251;-57
2024/02/22 03:29:22;;;;;;;;;3.50;3.50;;;;;11.09;100.00;98106.78;6022443;29;96402;-57
2024/02/22 03:32:25;;;;;;;;;2.40;2.40;;;;;11.16;100.00;98102.84;6028756;28;96299;-57
2024/02/22 03:35:29;;;;;;;;;3.00;3.00;;;;;11.16;100.00;98093.94;6034539;28;96760;-57
2024/02/22 03:38:33;;;;;;;;;4.00;3.00;;;;;11.32;100.00;98100.41;6022531;29;98171;-57
2024/02/22 03:41:38;;;;;;;;;3.00;3.00;;;;;11.36;100.00;98090.75;6022369;29;96812;-57
2024/02/22 03:44:41;;;;;;;;;2.00;2.00;;;;;11.45;100.00;98090.09;6020939;29;96475;-57
2024/02/22 03:47:44;;;;;;;;;3.00;3.00;;;;;11.45;100.00;98091.97;6022085;28;96429;-57
2024/02/22 03:50:48;;;;;;;;;3.00;3.00;;;;;11.54;100.00;98080.50;6021149;29;96540;-57
2024/02/22 03:53:51;;;;;;;;;4.00;4.00;;;;;11.65;100.00;98084.16;6004410;29;96810;-57
2024/02/22 03:56:56;;;;;;;;;3.00;3.00;;;;;11.73;100.00;98082.97;6025293;28;96814;-57
2024/02/22 03:59:59;;;;;;;;;3.00;2.00;;;;;11.80;100.00;98080.91;6021839;29;96370;-57
2024/02/22 04:03:02;;;;;;;;;2.00;2.00;;;;;11.79;100.00;98073.88;5999547;29;97228;-57
2024/02/22 04:06:06;;;;;;;;;3.60;2.60;;;;;11.82;100.00;98076.91;6020670;29;96458;-57
2024/02/22 04:09:09;;;;;;;;;3.00;2.00;;;;;11.78;100.00;98075.75;6016569;28;96956;-58
2024/02/22 04:12:14;;;;;;;;;2.00;2.00;;;;;11.73;100.00;98064.09;6020699;29;97667;-57
2024/02/22 04:15:17;;;;;;;;;3.00;2.20;;;;;11.82;100.00;98068.81;6019023;28;99163;-57
2024/02/22 04:18:20;;;;;;;;;4.00;4.00;;;;;11.84;100.00;98058.56;6020555;29;96709;-57
2024/02/22 04:21:23;;;;;;;;;4.00;4.00;;;;;11.83;100.00;98048.81;6003677;28;97356;-57
2024/02/22 04:24:26;;;;;;;;;4.00;4.00;;;;;11.87;100.00;98046.44;6020516;28;96335;-57
2024/02/22 04:27:31;;;;;;;;;4.75;4.00;;;;;11.86;100.00;98047.50;6022166;28;96403;-57
2024/02/22 04:30:34;;;;;;;;;2.60;2.60;;;;;11.92;100.00;98038.41;6018525;29;96505;-57
2024/02/22 04:33:37;;;;;;;;;3.00;3.00;;;;;11.94;100.00;98031.69;6017675;28;96537;-57
2024/02/22 04:36:41;;;;;;;;;4.75;3.75;;;;;11.98;100.00;98031.97;6019010;29;96721;-57
2024/02/22 04:39:44;;;;;;;;;3.00;3.00;;;;;11.93;100.00;98030.03;6020549;29;96233;-57
2024/02/22 04:42:49;;;;;;;;;3.00;3.00;;;;;12.05;100.00;98027.22;6020463;29;97138;-57
2024/02/22 04:45:52;;;;;;;;;4.00;4.00;;;;;12.03;100.00;98013.13;6018515;29;96903;-57
2024/02/22 04:48:55;;;;;;;;;3.00;3.00;;;;;12.07;100.00;98017.78;6015714;29;96431;-57
2024/02/22 04:51:58;;;;;;;;;6.50;5.00;;;;;12.13;100.00;98013.25;6021081;29;96710;-57
2024/02/22 04:55:03;;;;;;;;;4.00;2.75;;;;;12.12;100.00;98011.63;6023455;28;96367;-57
2024/02/22 04:58:08;;;;;;;;;2.25;2.25;;;;;12.14;100.00;98006.78;6021052;29;96311;-57
2024/02/22 05:01:11;;;;;;;;;5.00;5.00;;;;;12.15;100.00;98000.31;6019923;29;96354;-57
2024/02/22 05:04:14;;;;;;;;;6.00;4.00;;;;;12.17;100.00;97990.06;6020468;29;96891;-58
2024/02/22 05:07:18;;;;;;;;;3.80;3.80;;;;;12.17;100.00;97992.75;6018898;29;96375;-58
2024/02/22 05:10:22;;;;;;;;;4.50;4.25;;;;;12.14;100.00;97987.88;6020032;29;97661;-58
2024/02/22 05:13:27;;;;;;;;;3.00;3.00;;;;;12.14;100.00;97991.41;6019081;29;96282;-58
2024/02/22 05:16:30;;;;;;;;;7.00;5.60;;;;;12.16;100.00;97980.34;6020735;29;96532;-58
2024/02/22 05:19:33;;;;;;;;;5.00;4.80;;;;;12.17;100.00;97986.56;6019778;29;96869;-58
2024/02/22 05:22:37;;;;;;;;;3.00;3.00;;;;;12.18;100.00;97985.47;6019752;29;96413;-58
2024/02/22 05:25:41;;;;;;;;;4.00;4.00;;;;;12.22;100.00;97983.91;6013177;29;97291;-58
2024/02/22 05:28:46;;;;;;;;;3.00;2.20;;;;;12.28;100.00;97978.28;6021137;28;96932;-58
2024/02/22 05:31:49;;;;;;;;;5.00;5.00;;;;;12.34;100.00;97984.56;6032813;28;96352;-58
2024/02/22 05:34:52;;;;;;;;;4.00;3.00;;;;;12.37;100.00;97976.75;6031809;29;96589;-58
2024/02/22 05:37:55;;;;;;;;;4.00;4.00;;;;;12.40;100.00;97976.28;6046218;29;96460;-58
2024/02/22 05:40:59;;;;;;;;;4.60;4.00;;;;;12.45;100.00;97980.91;6046292;29;96416;-59
2024/02/22 05:44:03;;;;;;;;;4.00;4.00;;;;;12.46;100.00;97969.03;6046042;29;96913;-59
2024/02/22 05:47:06;;;;;;;;;4.00;3.00;;;;;12.37;100.00;97957.03;6051845;28;96346;-58
2024/02/22 05:50:10;;;;;;;;;6.00;5.40;;;;;12.48;100.00;97985.78;6044959;28;96410;-59
2024/02/22 05:53:14;;;;;;;;;6.00;5.00;;;;;12.45;100.00;97981.72;6044747;29;96301;-59
2024/02/22 05:56:18;;;;;;;;;8.00;7.40;;;;;12.45;100.00;97984.44;6044089;29;97033;-57
2024/02/22 05:59:23;;;;;;;;;6.25;6.25;;;;;12.43;100.00;97989.28;6044511;29;96327;-58
2024/02/22 06:02:26;;;;;;;;;7.00;6.80;;;;;12.45;100.00;97989.84;6041142;29;97213;-58
2024/02/22 06:05:29;;;;;;;;;7.00;6.00;;;;;12.48;100.00;97983.91;6045217;28;96309;-58
2024/02/22 06:08:33;;;;;;;;;9.60;8.60;;;;;12.51;100.00;97969.88;6043423;29;96393;-58
2024/02/22 06:11:37;;;;;;;;;11.20;9.80;;;;;12.49;100.00;97985.56;6043469;29;96263;-59
2024/02/22 06:14:41;;;;;;;;;12.50;11.50;;;;;12.42;100.00;97970.59;6059306;28;98269;-59
2024/02/22 06:17:45;;;;;;;;;12.20;11.20;;;;;12.40;100.00;97973.56;6059639;28;96351;-57
2024/02/22 06:20:48;;;;;;;;;12.60;11.20;;;;;12.40;100.00;97951.94;6044076;28;96768;-57
2024/02/22 06:23:51;;;;;;;;;13.00;13.00;;;;;12.38;100.00;97964.88;6029776;29;98837;-59
2024/02/22 06:26:57;;;;;;;;;12.60;11.60;;;;;12.31;100.00;97972.41;6053403;28;96323;-58
2024/02/22 06:30:02;;;;;;;;;12.00;11.40;;;;;12.29;100.00;97968.31;6046165;28;97692;-57
2024/02/22 06:33:05;;;;;;;;;13.60;12.20;;;;;12.22;100.00;97970.41;6046182;29;96405;-58
2024/02/22 06:36:09;;;;;;;;;13.25;13.00;;;;;12.22;100.00;97965.00;6040910;28;96356;-56
2024/02/22 06:39:13;;;;;;;;;16.00;13.00;;;;;12.26;100.00;97955.31;6045011;28;96356;-57
2024/02/22 06:42:16;;;;;;;;;13.00;12.00;;;;;12.15;100.00;97941.69;6027034;28;96718;-56
2024/02/22 06:45:23;;;;;;;;;11.00;10.50;;;;;12.19;100.00;97941.19;6036249;28;96829;-57
2024/02/22 06:48:26;;;;;;;;;13.60;12.60;;;;;12.25;100.00;97934.75;6023214;28;96849;-57
2024/02/22 06:51:29;;;;;;;;;15.75;14.00;;;;;12.30;100.00;97934.81;6019970;28;97085;-57
2024/02/22 06:54:33;;;;;;;;;11.60;11.20;;;;;12.36;100.00;97921.09;6021736;29;96428;-57
2024/02/22 06:57:38;;;;;;;;;12.00;11.00;;;;;12.48;100.00;97913.63;6005329;29;96378;-57
2024/02/22 07:00:42;;;;;;;;;16.00;14.25;;;;;12.59;100.00;97891.00;6016083;29;97051;-57
2024/02/22 07:03:46;;;;;;;;;12.40;10.80;;;;;12.71;100.00;97904.34;6016590;28;96425;-57
2024/02/22 07:06:49;;;;;;;;;11.00;9.00;;;;;12.86;100.00;97895.50;6004128;29;98259;-57
2024/02/22 07:09:55;;;;;;;;;11.40;11.00;;;;;13.05;100.00;97899.44;6020978;29;97164;-57
2024/02/22 07:12:58;;;;;;;;;10.40;8.40;;;;;13.14;100.00;97884.38;6021218;28;96468;-57
2024/02/22 07:16:03;;;;;;;;;7.25;6.25;;;;;13.38;100.00;97895.59;6021590;29;96602;-57
2024/02/22 07:19:06;;;;;;;;;7.60;7.00;;;;;13.49;100.00;97891.84;6009654;29;96442;-57
2024/02/22 07:22:09;;;;;;;;;7.00;6.40;;;;;13.66;100.00;97884.34;6023209;29;96950;-57
2024/02/22 07:25:12;;;;;;;;;7.00;6.00;;;;;13.80;100.00;97881.94;6022206;29;96623;-57
2024/02/22 07:28:15;;;;;;;;;7.80;7.00;;;;;13.99;100.00;97879.53;6022469;28;96727;-57
2024/02/22 07:31:20;;;;;;;;;7.00;7.00;;;;;14.15;100.00;97878.50;6016090;29;96608;-57
2024/02/22 07:34:24;;;;;;;;;8.00;7.00;;;;;14.26;100.00;97874.72;6013898;29;96453;-57
2024/02/22 07:37:27;;;;;;;;;5.50;5.50;;;;;14.36;100.00;97860.34;6021629;29;96884;-57
2024/02/22 07:40:31;;;;;;;;;8.00;7.00;;;;;14.65;100.00;97867.69;6022472;29;96873;-57
2024/02/22 07:43:35;;;;;;;;;4.40;4.00;;;;;14.89;100.00;97850.84;6005134;29;96720;-57
2024/02/22 07:46:39;;;;;;;;;6.40;6.00;;;;;14.91;100.00;97821.50;6022134;28;97733;-57
2024/02/22 07:49:43;;;;;;;;;6.60;6.40;;;;;15.18;100.00;97846.41;6022027;29;96439;-57
2024/02/22 07:52:46;;;;;;;;;5.00;5.00;;;;;15.07;100.00;97833.97;6022134;29;96440;-57
2024/02/22 07:55:49;;;;;;;;;5.25;5.00;;;;;15.10;100.00;97833.44;6038652;29;97512;-57
2024/02/22 07:58:56;;;;;;;;;4.25;4.00;;;;;15.07;100.00;97837.50;6050297;28;96522;-59
2024/02/22 08:02:01;;;;;;;;;4.00;3.50;;;;;15.09;100.00;97827.19;6037608;28;96314;-57
2024/02/22 08:05:05;;;;;;;;;5.00;5.00;;;;;15.04;100.00;97826.38;6048152;29;96472;-58
2024/02/22 08:08:09;;;;;;;;;5.50;5.00;;;;;15.08;100.00;97819.31;6050122;29;96541;-58
2024/02/22 08:11:13;;;;;;;;;4.00;4.00;;;;;15.04;100.00;97816.34;6049692;29;97671;-58
2024/02/22 08:14:16;;;;;;;;;4.75;4.00;;;;;14.87;100.00;97821.25;6049171;29;96436;-59
2024/02/22 08:17:21;;;;;;;;;5.50;5.00;;;;;14.92;100.00;97802.25;6049540;28;96903;-57
2024/02/22 08:20:24;;;;;;;;;5.00;5.00;;;;;14.93;100.00;97808.50;6046957;28;96415;-58
2024/02/22 08:23:28;;;;;;;;;5.50;4.50;;;;;14.93;100.00;97800.34;6047156;29;96381;-58
2024/02/22 08:26:31;;;;;;;;;4.80;4.00;;;;;14.90;100.00;97809.06;6047432;29;96344;-57
2024/02/22 08:29:35;;;;;;;;;5.00;5.00;;;;;15.08;100.00;97797.59;6047564;29;96660;-59
2024/02/22 08:32:39;;;;;;;;;6.00;6.00;;;;;15.23;100.00;97802.16;6047573;29;96318;-58
2024/02/22 08:35:42;;;;;;;;;7.00;5.60;;;;;15.28;100.00;97789.38;6049414;28;96325;-59
2024/02/22 08:38:45;;;;;;;;;4.40;4.40;;;;;15.34;100.00;97792.88;6047477;28;96280;-59
2024/02/22 08:41:49;;;;;;;;;6.00;6.00;;;;;15.21;100.00;97788.84;6030962;28;96212;-57
2024/02/22 08:44:52;;;;;;;;;6.00;6.00;;;;;14.94;100.00;97791.13;6047324;29;96324;-58
2024/02/22 08:47:56;;;;;;;;;6.80;5.80;;;;;14.87;100.00;97791.41;6048265;28;96304;-57
2024/02/22 08:51:00;;;;;;;;;5.80;5.00;;;;;14.90;100.00;97788.16;6047466;29;96311;-58
2024/02/22 08:54:03;;;;;;;;;5.80;5.20;;;;;14.71;100.00;97790.63;6048449;29;96316;-57
2024/02/22 08:57:06;;;;;;;;;5.60;5.00;;;;;14.92;100.00;97771.59;6048108;28;96438;-58
2024/02/22 09:00:11;;;;;;;;;5.60;5.40;;;;;14.99;100.00;97777.53;6048350;28;96278;-58
2024/02/22 09:03:16;;;;;;;;;7.00;6.60;;;;;15.06;100.00;97772.63;6047761;28;96284;-58
2024/02/22 09:06:19;;;;;;;;;6.00;5.00;;;;;14.93;100.00;97771.31;6030632;28;96297;-58
2024/02/22 09:09:22;;;;;;;;;6.40;6.40;;;;;15.02;100.00;97764.22;6020611;29;96427;-57
2024/02/22 09:12:25;;;;;;;;;7.00;6.00;;;;;14.99;100.00;97753.13;6020686;29;96312;-57
2024/02/22 09:15:29;;;;;;;;;5.80;5.20;;;;;14.92;100.00;97763.44;6020445;28;96533;-57
2024/02/22 09:18:34;;;;;;;;;6.00;5.00;;;;;15.08;100.00;97730.53;6020467;29;96408;-58
2024/02/22 09:21:37;;;;;;;;;5.25;5.00;;;;;15.18;100.00;97743.25;6020448;29;96335;-57
2024/02/22 09:24:42;;;;;;;;;7.00;7.00;;;;;15.43;100.00;97748.56;6020574;29;97494;-57
2024/02/22 09:27:46;;;;;;;;;6.00;5.40;;;;;15.66;100.00;97744.38;6020169;29;96518;-57
2024/02/22 09:30:51;;;;;;;;;7.40;6.60;;;;;15.82;100.00;97736.94;6020146;29;96334;-57
2024/02/22 09:33:56;;;;;;;;;7.40;6.40;;;;;16.05;100.00;97717.16;6020636;29;96891;-57
2024/02/22 09:37:01;;;;;;;;;6.50;6.00;;;;;16.19;100.00;97709.97;6020358;29;96279;-57
2024/02/22 09:40:05;;;;;;;;;6.00;6.00;;;;;16.22;100.00;97723.00;6020334;29;96369;-58
2024/02/22 09:43:08;;;;;;;;;8.00;7.00;;;;;16.23;100.00;97713.72;6019872;29;96317;-57
2024/02/22 09:46:12;;;;;;;;;7.00;6.00;;;;;16.14;100.00;97725.50;6019127;29;96507;-57
2024/02/22 09:49:17;;;;;;;;;5.00;5.00;;;;;15.79;100.00;97705.69;6018684;29;96326;-57
2024/02/22 09:52:21;;;;;;;;;5.60;5.00;;;;;15.99;100.00;97699.25;6020501;29;96389;-58
2024/02/22 09:55:25;;;;;;;;;8.00;6.00;;;;;15.84;100.00;97683.09;6016032;28;97616;-58
2024/02/22 09:58:29;;;;;;;;;6.00;5.00;;;;;15.82;100.00;97702.41;6037510;28;97894;-58
2024/02/22 10:01:32;;;;;;;;;6.40;6.00;;;;;15.89;100.00;97681.13;6019492;29;96416;-58
2024/02/22 10:04:37;;;;;;;;;4.00;4.00;;;;;15.88;100.00;97681.44;6020193;29;96394;-58
2024/02/22 10:07:41;;;;;;;;;4.50;4.50;;;;;15.96;100.00;97667.22;6020119;29;96889;-58
2024/02/22 10:10:45;;;;;;;;;8.00;6.00;;;;;16.10;100.00;97670.09;6019917;29;96404;-58
2024/02/22 10:13:48;;;;;;;;;5.00;5.00;;;;;16.27;100.00;97663.09;6036406;28;96316;-58
2024/02/22 10:16:52;;;;;;;;;4.00;4.00;;;;;16.66;100.00;97662.19;6044699;28;96432;-58
2024/02/22 10:19:58;;;;;;;;;6.20;6.00;;;;;16.69;100.00;97645.25;6047033;28;96565;-58
2024/02/22 10:23:08;;;;;;;;;7.00;6.00;;;;;16.83;97.71;97646.97;6047258;28;96370;-57
2024/02/22 10:26:11;;;;;;;;;6.50;6.50;;;;;17.10;98.07;97637.38;6047356;28;96189;-57
2024/02/22 10:29:15;;;;;;;;;5.00;4.00;;;;;17.48;97.85;97630.00;6035025;28;96294;-58
2024/02/22 10:32:19;;;;;;;;;8.40;7.00;;;;;17.82;94.70;97636.00;6023567;29;96319;-58
2024/02/22 10:35:26;;;;;;;;;5.00;5.00;;;;;17.93;92.37;97639.38;5992188;29;96447;-58
2024/02/22 10:38:30;;;;;;;;;5.00;5.00;;;;;17.86;89.77;97625.28;6029625;28;96946;-58
2024/02/22 10:41:35;;;;;;;;;5.40;5.20;;;;;18.18;92.14;97609.69;6046708;28;96386;-58
2024/02/22 10:44:39;;;;;;;;;7.00;6.00;;;;;18.22;87.96;97618.09;6047067;28;96373;-58
2024/02/22 10:47:45;;;;;;;;;6.00;6.00;;;;;18.08;89.90;97612.59;6040186;28;96296;-58
2024/02/22 10:50:51;;;;;;;;;5.60;5.00;;;;;17.69;90.40;97604.84;6023378;29;96351;-58
2024/02/22 10:53:57;;;;;;;;;5.60;5.20;;;;;17.56;92.66;97594.69;6023272;29;96385;-57
2024/02/22 10:57:02;;;;;;;;;2.80;2.80;;;;;17.53;93.65;97589.84;6005148;29;97222;-57
2024/02/22 11:00:07;;;;;;;;;5.40;5.00;;;;;17.22;94.92;97580.53;6022654;29;96435;-58
2024/02/22 11:03:13;;;;;;;;;5.40;5.00;;;;;17.33;95.34;97566.47;6021798;29;96623;-57
2024/02/22 11:06:20;;;;;;;;;5.50;5.00;;;;;17.08;95.26;97571.50;6023356;29;96464;-58
2024/02/22 11:09:25;;;;;;;;;6.00;6.00;;;;;17.05;95.08;97550.31;6023152;28;96372;-58
2024/02/22 11:12:32;;;;;;;;;5.00;5.00;;;;;17.07;96.07;97546.19;6005676;29;98340;-58
2024/02/22 11:15:35;;;;;;;;;7.00;5.00;;;;;16.97;96.87;97540.06;6023070;29;96370;-58
2024/02/22 11:18:39;;;;;;;;;4.50;4.50;;;;;16.73;98.15;97532.81;6015003;29;96375;-58
2024/02/22 11:21:44;;;;;;;;;6.00;6.00;;;;;16.79;99.47;97525.38;6022655;29;96632;-58
2024/02/22 11:24:49;;;;;;;;;5.00;4.00;;;;;16.84;98.55;97517.16;6022436;29;96326;-58
2024/02/22 11:27:59;;;;;;;;;6.00;5.00;;;;;16.84;97.84;97514.41;6046389;29;96333;-60
2024/02/22 11:31:09;;;;;;;;;6.00;5.00;;;;;16.38;100.00;97497.88;6033204;29;96247;-59
2024/02/22 11:34:17;;;;;;;;;5.40;5.40;;;;;16.18;100.00;97492.72;6052792;28;97589;-59
2024/02/22 11:37:21;;;;;;;;;7.50;6.00;;;;;16.20;100.00;97507.66;6048613;28;96790;-60
2024/02/22 11:40:26;;;;;;;;;7.00;6.20;;;;;16.41;100.00;97489.16;6055413;28;96410;-59
2024/02/22 11:43:29;;;;;;;;;7.00;6.00;;;;;16.53;100.00;97497.69;6048332;29;96908;-59
2024/02/22 11:46:36;;;;;;;;;6.00;6.00;;;;;16.63;100.00;97497.56;6049303;29;96592;-60
2024/02/22 11:49:40;;;;;;;;;5.00;5.00;;;;;16.33;99.74;97477.00;6049283;28;96856;-59
2024/02/22 11:52:46;;;;;;;;;5.20;5.00;;;;;16.32;97.75;97471.88;6056446;28;97042;-57
2024/02/22 11:55:50;;;;;;;;;7.60;7.00;;;;;16.35;97.06;97465.84;6070883;28;96461;-57
2024/02/22 11:58:56;;;;;;;;;6.20;5.80;;;;;16.59;97.54;97471.25;6047959;28;96918;-59
2024/02/22 12:02:01;;;;;;;;;6.00;6.00;;;;;16.76;95.33;97456.00;6048863;28;96245;-58
2024/02/22 12:05:06;;;;;;;;;6.00;5.00;;;;;16.95;94.93;97449.75;6045580;29;96338;-58
2024/02/22 12:08:12;;;;;;;;;4.40;3.40;;;;;17.08;94.26;97454.41;6035961;29;96332;-59
2024/02/22 12:11:15;;;;;;;;;5.00;4.00;;;;;17.06;93.46;97454.72;6048358;29;96663;-60
2024/02/22 12:14:19;;;;;;;;;5.00;5.00;;;;;17.09;91.36;97454.13;6047701;29;96306;-59
2024/02/22 12:17:25;;;;;;;;;5.00;5.00;;;;;17.37;91.85;97449.53;6048028;29;96417;-59
2024/02/22 12:20:29;;;;;;;;;7.00;7.00;;;;;17.54;86.63;97449.78;6047167;29;96306;-61
2024/02/22 12:23:33;;;;;;;;;6.00;5.80;;;;;18.01;88.25;97448.59;6031359;29;96333;-59
2024/02/22 12:26:36;;;;;;;;;4.60;4.60;;;;;18.32;84.64;97447.94;6046980;29;96205;-59
2024/02/22 12:29:40;;;;;;;;;6.00;6.00;;;;;18.63;83.41;97434.44;6057549;28;96354;-59
2024/02/22 12:32:48;;;;;;;;;5.20;5.20;;;;;18.84;82.02;97430.09;6030711;29;97055;-60
2024/02/22 12:35:52;;;;;;;;;5.00;5.00;;;;;18.96;79.00;97422.19;6044322;29;96288;-58
2024/02/22 12:38:56;;;;;;;;;5.00;4.00;;;;;18.96;76.64;97425.69;6036348;29;96472;-59
2024/02/22 12:42:02;;;;;;;;;4.00;4.00;;;;;18.96;77.91;97414.75;6047462;29;96230;-59
2024/02/22 12:45:06;;;;;;;;;6.00;5.00;;;;;18.85;76.57;97432.53;6047265;29;96345;-59
2024/02/22 12:48:09;;;;;;;;;8.00;6.00;;;;;18.95;79.23;97421.38;6047502;29;96208;-59
2024/02/22 12:51:13;;;;;;;;;6.00;6.00;;;;;18.92;78.03;97408.31;6030520;29;96694;-60
2024/02/22 12:54:24;;;;;;;;;7.00;6.00;;;;;19.06;77.67;97418.38;6047651;28;96270;-60
2024/02/22 12:57:27;;;;;;;;;7.00;6.00;;;;;19.03;77.52;97417.06;6047391;29;96270;-58
2024/02/22 13:00:30;;;;;;;;;6.00;6.00;;;;;19.00;78.11;97418.50;6047114;28;97656;-58
2024/02/22 13:03:34;;;;;;;;;7.00;6.00;;;;;18.96;77.82;97403.06;6029787;29;96351;-58
2024/02/22 13:06:37;;;;;;;;;6.60;4.60;;;;;18.96;79.19;97414.00;6041076;28;96260;-57
2024/02/22 13:09:44;;;;;;;;;6.25;6.25;;;;;18.93;78.95;97396.28;6027976;29;96295;-60
2024/02/22 13:12:47;;;;;;;;;6.60;5.60;;;;;18.88;79.13;97393.69;6046047;29;96434;-59
2024/02/22 13:15:50;;;;;;;;;6.00;5.80;;;;;18.85;80.50;97382.59;6045690;28;96251;-60
2024/02/22 13:18:54;;;;;;;;;6.40;6.40;;;;;18.80;81.08;97382.72;6030642;29;96343;-59
2024/02/22 13:21:57;;;;;;;;;6.50;5.50;;;;;18.71;81.38;97369.00;6026140;29;96267;-59
2024/02/22 13:25:01;;;;;;;;;6.00;6.00;;;;;18.65;82.68;97364.78;6045597;28;96367;-59
2024/02/22 13:28:05;;;;;;;;;7.00;7.00;;;;;18.59;82.86;97363.28;6045185;29;96220;-58
2024/02/22 13:31:09;;;;;;;;;6.40;6.40;;;;;18.52;83.15;97366.41;6045954;29;96282;-59
2024/02/22 13:34:12;;;;;;;;;8.00;7.20;;;;;18.46;83.36;97351.28;6046283;29;96887;-59
2024/02/22 13:37:15;;;;;;;;;7.40;7.00;;;;;18.45;84.62;97337.97;6030076;29;96575;-59
2024/02/22 13:40:21;;;;;;;;;8.00;7.00;;;;;18.37;84.73;97341.44;6046607;29;96374;-59
2024/02/22 13:43:24;;;;;;;;;8.20;8.00;;;;;18.16;85.30;97330.19;6047365;29;96376;-59
2024/02/22 13:46:27;;;;;;;;;7.00;6.00;;;;;18.14;85.66;97335.94;6030665;29;96269;-60
2024/02/22 13:49:30;;;;;;;;;8.00;7.00;;;;;18.13;87.39;97337.06;6046631;28;96271;-58
2024/02/22 13:52:34;;;;;;;;;8.25;8.25;;;;;18.01;88.03;97342.25;6046504;29;96353;-59
2024/02/22 13:55:38;;;;;;;;;7.00;6.00;;;;;17.68;86.42;97335.34;6046709;29;96269;-59
2024/02/22 13:58:41;;;;;;;;;8.40;7.00;;;;;17.73;88.67;97327.06;6046838;29;96350;-59
2024/02/22 14:01:44;;;;;;;;;6.50;6.50;;;;;17.56;90.57;97324.13;6045496;29;96327;-60
2024/02/22 14:04:48;;;;;;;;;6.00;6.00;;;;;17.35;89.01;97337.34;6046712;29;96299;-59
2024/02/22 14:07:54;;;;;;;;;9.00;8.00;;;;;17.12;90.50;97306.47;6045834;29;96556;-59
2024/02/22 14:10:59;;;;;;;;;6.00;5.50;;;;;16.95;90.84;97340.84;6046810;29;96343;-59
2024/02/22 14:14:06;;;;;;;;;8.00;8.00;;;;;16.92;91.90;97317.75;6046544;29;96411;-59
2024/02/22 14:17:10;;;;;;;;;7.00;7.00;;;;;16.73;94.30;97309.66;6047282;28;96371;-58